Sea Bright, New Jersey
Current Conditions -  °F | °C
As of 7:35 PM on Wednesday 26 Nov 2014 (Local Time) from KBLM Reporting Station
Overcast Overcast  
Wind Chill: 28°   Ceiling: 600
Heat Index: 37°   Visibility: 4mi
Dew Point: 30°   Wind: 16mph
Humidity: 75%   Direction: 330°NNW
Pressure: 29.78"   Gusts: 23mph
Location:  40.3613°N, 74.0061°W
Report Text: KBLM 270035Z AUTO 33014G20KT 4SM BKN006 OVC013 03/M01 A2978 RMK AO1 P0001
Loading
Personal Weather Stations






























Interactive Weather Map New forecast layout! Learn more

10-Day Weather Forecast

Advertisements
Track Severe Weather on mobile